createdAt,value
2019-03-11T00:02:12.345Z,6.20
2019-03-11T00:04:41.133Z,6.10
2019-03-11T00:07:08.945Z,6.00
2019-03-11T00:09:36.662Z,5.90
2019-03-11T00:12:04.537Z,5.90
2019-03-11T00:14:32.246Z,5.90
2019-03-11T00:17:00.102Z,5.80
2019-03-11T00:19:28.285Z,5.80
2019-03-11T00:21:56.049Z,5.80
2019-03-11T00:24:23.650Z,5.80
2019-03-11T00:26:51.610Z,5.80
2019-03-11T00:29:19.280Z,5.80
2019-03-11T00:31:47.019Z,5.90
2019-03-11T00:34:14.816Z,5.80
2019-03-11T00:36:42.704Z,5.80
2019-03-11T00:39:10.585Z,5.80
2019-03-11T00:41:38.387Z,5.80
2019-03-11T00:44:06.218Z,5.80
2019-03-11T00:46:34.013Z,5.70
2019-03-11T00:49:01.960Z,5.70
2019-03-11T00:51:29.756Z,5.70
2019-03-11T00:53:57.509Z,5.70
2019-03-11T00:56:25.225Z,5.70
2019-03-11T00:58:53.113Z,5.70
2019-03-11T01:01:20.790Z,5.70
2019-03-11T01:03:48.566Z,5.60
2019-03-11T01:06:16.237Z,5.60
2019-03-11T01:08:44.078Z,5.60
2019-03-11T01:11:11.778Z,5.60
2019-03-11T01:13:39.718Z,5.60
2019-03-11T01:16:07.542Z,5.60
2019-03-11T01:18:35.408Z,5.70
2019-03-11T01:21:03.285Z,5.60
2019-03-11T01:23:31.067Z,5.60
2019-03-11T01:25:58.911Z,5.60
2019-03-11T01:28:26.556Z,5.60
2019-03-11T01:30:54.318Z,5.60
2019-03-11T01:33:22.190Z,5.60
2019-03-11T01:35:49.914Z,5.70
2019-03-11T01:38:17.685Z,5.60
2019-03-11T01:40:45.413Z,5.70
2019-03-11T01:43:13.094Z,5.60
2019-03-11T01:45:40.867Z,5.70
2019-03-11T01:48:08.658Z,5.60
2019-03-11T01:50:36.395Z,5.60
2019-03-11T01:53:04.146Z,5.60
2019-03-11T01:55:32.061Z,5.60
2019-03-11T01:57:59.823Z,5.50
2019-03-11T02:00:27.671Z,5.60
2019-03-11T02:02:55.439Z,5.50
2019-03-11T02:05:23.295Z,5.60
2019-03-11T02:07:51.043Z,5.60
2019-03-11T02:10:18.997Z,5.60
2019-03-11T02:12:46.833Z,5.60
2019-03-11T02:15:14.965Z,5.60
2019-03-11T02:17:43.733Z,5.60
2019-03-11T02:20:12.555Z,5.60
2019-03-11T02:22:41.729Z,5.60
2019-03-11T02:25:09.710Z,5.60
2019-03-11T02:27:37.848Z,5.60
2019-03-11T02:30:06.539Z,5.60
2019-03-11T02:32:35.888Z,5.60
2019-03-11T02:35:03.970Z,5.60
2019-03-11T02:37:32.024Z,5.70
2019-03-11T02:39:59.886Z,5.70
2019-03-11T02:42:28.561Z,5.70
2019-03-11T02:44:56.251Z,5.60
2019-03-11T02:47:24.015Z,5.60
2019-03-11T02:49:51.712Z,5.60
2019-03-11T02:52:19.530Z,5.60
2019-03-11T02:54:47.330Z,5.60
2019-03-11T02:57:15.095Z,5.70
2019-03-11T02:59:42.816Z,5.70
2019-03-11T03:02:24.043Z,5.70
2019-03-11T03:05:02.283Z,5.70
2019-03-11T03:07:31.719Z,5.70
2019-03-11T03:09:59.400Z,5.70
2019-03-11T03:12:27.275Z,5.70
2019-03-11T03:14:55.131Z,5.70
2019-03-11T03:17:22.967Z,5.70
2019-03-11T03:19:50.632Z,5.70
2019-03-11T03:22:18.388Z,5.70
2019-03-11T03:24:46.076Z,5.70
2019-03-11T03:27:14.022Z,5.70
2019-03-11T03:29:41.724Z,5.70
2019-03-11T03:32:09.669Z,5.70
2019-03-11T03:34:37.591Z,5.70
2019-03-11T03:37:05.360Z,5.70
2019-03-11T03:39:33.212Z,5.70
2019-03-11T03:42:01.407Z,5.70
2019-03-11T03:44:29.156Z,5.80
2019-03-11T03:46:56.715Z,5.70
2019-03-11T03:49:24.461Z,5.60
2019-03-11T03:51:52.323Z,5.60
2019-03-11T03:54:19.978Z,5.60
2019-03-11T03:56:47.843Z,5.60
2019-03-11T03:59:15.602Z,5.40
2019-03-11T04:01:43.270Z,5.30
2019-03-11T04:04:11.105Z,5.30
2019-03-11T04:06:38.958Z,5.20
2019-03-11T04:09:06.810Z,5.20
2019-03-11T04:11:34.583Z,5.10
2019-03-11T04:14:02.346Z,5.10
2019-03-11T04:16:30.086Z,5.00
2019-03-11T04:18:58.070Z,5.00
2019-03-11T04:21:25.839Z,5.00
2019-03-11T04:23:53.615Z,5.00
2019-03-11T04:26:27.115Z,5.10
2019-03-11T04:28:54.937Z,5.10
2019-03-11T04:31:22.999Z,5.30
2019-03-11T04:33:50.880Z,5.30
2019-03-11T04:36:18.641Z,5.40
2019-03-11T04:38:46.617Z,5.30
2019-03-11T04:41:14.340Z,5.40
2019-03-11T04:43:42.112Z,5.30
2019-03-11T04:46:10.578Z,5.20
2019-03-11T04:48:38.531Z,5.30
2019-03-11T04:51:06.375Z,5.30
2019-03-11T04:53:34.123Z,5.10
2019-03-11T04:56:02.005Z,5.10
2019-03-11T04:58:29.758Z,5.20
2019-03-11T05:00:57.663Z,5.10
2019-03-11T05:03:25.452Z,5.00
2019-03-11T05:05:53.194Z,5.00
2019-03-11T05:08:21.058Z,5.00
2019-03-11T05:10:48.733Z,5.10
2019-03-11T05:13:16.454Z,5.00
2019-03-11T05:15:44.210Z,5.10
2019-03-11T05:18:11.926Z,5.10
2019-03-11T05:20:39.578Z,5.00
2019-03-11T05:23:07.320Z,5.00
2019-03-11T05:25:35.211Z,5.00
2019-03-11T05:28:03.061Z,4.90
2019-03-11T05:30:30.753Z,4.90
2019-03-11T05:32:58.504Z,4.90
2019-03-11T05:35:26.183Z,4.90
2019-03-11T05:37:54.002Z,4.90
2019-03-11T05:40:21.577Z,4.90
2019-03-11T05:42:49.321Z,4.90
2019-03-11T05:45:17.124Z,4.90
2019-03-11T05:47:45.504Z,4.90
2019-03-11T05:50:13.682Z,4.90
2019-03-11T05:52:42.393Z,4.90
2019-03-11T05:55:10.391Z,5.00
2019-03-11T05:57:38.915Z,4.90
2019-03-11T06:00:12.791Z,4.90
2019-03-11T06:02:42.076Z,4.90
2019-03-11T06:05:09.918Z,4.90
2019-03-11T06:07:38.274Z,4.90
2019-03-11T06:10:06.265Z,4.90
2019-03-11T06:12:35.538Z,4.90
2019-03-11T06:15:04.192Z,4.90
2019-03-11T06:17:33.575Z,4.90
2019-03-11T06:20:23.969Z,4.80
2019-03-11T06:22:53.255Z,4.80
2019-03-11T06:25:21.121Z,4.80
2019-03-11T06:27:48.915Z,4.80
2019-03-11T06:30:16.738Z,4.70
2019-03-11T06:32:44.542Z,4.70
2019-03-11T06:35:12.471Z,4.70
2019-03-11T06:37:40.255Z,4.80
2019-03-11T06:40:08.228Z,4.70
2019-03-11T06:42:37.426Z,4.70
2019-03-11T06:45:05.254Z,4.80
2019-03-11T06:47:34.513Z,4.80
2019-03-11T06:50:02.335Z,4.80
2019-03-11T06:52:31.592Z,4.80
2019-03-11T06:54:59.330Z,4.80
2019-03-11T06:57:27.149Z,4.70
2019-03-11T06:59:54.989Z,4.80
2019-03-11T07:02:22.683Z,4.80
2019-03-11T07:04:50.464Z,4.80
2019-03-11T07:07:18.270Z,4.80
2019-03-11T07:09:52.210Z,4.80
2019-03-11T07:12:20.263Z,4.80
2019-03-11T07:14:48.118Z,4.80
2019-03-11T07:17:15.882Z,4.80
2019-03-11T07:19:43.571Z,4.80
2019-03-11T07:22:11.311Z,4.90
2019-03-11T07:24:39.179Z,4.80
2019-03-11T07:27:07.023Z,4.80
2019-03-11T07:29:34.707Z,4.80
2019-03-11T07:32:02.499Z,4.80
2019-03-11T07:34:30.273Z,4.80
2019-03-11T07:36:57.910Z,4.70
2019-03-11T07:39:25.675Z,4.80
2019-03-11T07:41:53.569Z,4.70
2019-03-11T07:44:21.370Z,4.10
2019-03-11T07:46:49.110Z,4.00
2019-03-11T07:49:16.777Z,3.80
2019-03-11T07:51:44.664Z,3.60
2019-03-11T07:54:12.451Z,3.40
2019-03-11T07:56:40.225Z,3.30
2019-03-11T07:59:08.022Z,3.30
2019-03-11T08:01:35.664Z,3.20
2019-03-11T08:04:03.401Z,3.10
2019-03-11T08:06:31.192Z,2.90
2019-03-11T08:08:59.117Z,2.70
2019-03-11T08:11:26.922Z,2.70
2019-03-11T08:13:54.693Z,2.60
2019-03-11T08:16:22.360Z,2.50
2019-03-11T08:18:50.224Z,2.30
2019-03-11T08:21:17.818Z,2.20
2019-03-11T08:23:45.661Z,2.20
2019-03-11T08:26:13.246Z,2.30
2019-03-11T08:28:41.241Z,2.40
2019-03-11T08:31:09.041Z,2.60
2019-03-11T08:33:36.810Z,2.70
2019-03-11T08:36:04.496Z,2.90
2019-03-11T08:38:32.381Z,3.20
2019-03-11T08:41:00.136Z,3.40
2019-03-11T08:43:28.186Z,3.60
2019-03-11T08:45:55.947Z,3.90
2019-03-11T08:48:23.621Z,4.10
2019-03-11T08:50:51.557Z,4.40
2019-03-11T08:53:19.326Z,4.40
2019-03-11T08:55:47.104Z,4.50
2019-03-11T08:58:14.858Z,4.40
2019-03-11T09:00:42.707Z,4.50
2019-03-11T09:03:10.377Z,4.50
2019-03-11T09:05:38.217Z,4.50
2019-03-11T09:08:05.998Z,4.50
2019-03-11T09:10:33.850Z,4.50
2019-03-11T09:13:01.549Z,4.50
2019-03-11T09:15:29.405Z,4.60
2019-03-11T09:17:57.086Z,4.60
2019-03-11T09:20:24.849Z,4.80
2019-03-11T09:22:52.534Z,5.00
2019-03-11T09:25:20.372Z,5.00
2019-03-11T09:27:51.022Z,4.90
2019-03-11T09:30:19.593Z,5.00
2019-03-11T09:32:48.394Z,5.00
2019-03-11T09:35:16.257Z,5.10
2019-03-11T09:37:45.255Z,5.20
2019-03-11T09:40:13.596Z,5.40
2019-03-11T09:42:42.974Z,5.50
2019-03-11T09:45:10.980Z,5.50
2019-03-11T09:47:40.338Z,5.70
2019-03-11T09:50:09.198Z,5.70
2019-03-11T09:52:38.584Z,5.70
2019-03-11T09:55:07.634Z,5.80
2019-03-11T09:57:37.008Z,5.90
2019-03-11T10:00:08.469Z,5.90
2019-03-11T10:02:37.819Z,5.90
2019-03-11T10:05:05.922Z,5.90
2019-03-11T10:07:33.980Z,5.90
2019-03-11T10:10:01.763Z,6.00
2019-03-11T10:12:31.119Z,6.10
2019-03-11T10:14:58.765Z,6.10
2019-03-11T10:17:26.572Z,6.20
2019-03-11T10:19:54.277Z,6.10
2019-03-11T10:22:22.179Z,6.20
2019-03-11T10:24:49.946Z,6.00
2019-03-11T10:27:17.645Z,6.00
2019-03-11T10:29:45.525Z,5.90
2019-03-11T10:32:13.377Z,6.00
2019-03-11T10:34:41.130Z,6.00
2019-03-11T10:37:08.815Z,5.80
2019-03-11T10:39:36.672Z,5.50
2019-03-11T10:42:04.562Z,5.50
2019-03-11T10:44:32.431Z,5.50
2019-03-11T10:47:00.095Z,5.40
2019-03-11T10:49:28.189Z,5.50
2019-03-11T10:51:55.770Z,5.70
2019-03-11T10:54:23.564Z,5.70
2019-03-11T10:56:51.462Z,5.80
2019-03-11T10:59:19.339Z,5.90
2019-03-11T11:01:47.112Z,6.00
2019-03-11T11:04:14.945Z,6.20
2019-03-11T11:06:42.812Z,6.30
2019-03-11T11:09:10.872Z,6.20
2019-03-11T11:11:38.751Z,6.10
2019-03-11T11:14:06.441Z,5.80
2019-03-11T11:16:34.306Z,5.70
2019-03-11T11:19:01.970Z,5.50
2019-03-11T11:21:29.866Z,5.40
2019-03-11T11:23:57.590Z,5.30
2019-03-11T11:26:25.356Z,5.20
2019-03-11T11:28:53.210Z,5.00
2019-03-11T11:31:21.094Z,5.00
2019-03-11T11:33:48.897Z,5.10
2019-03-11T11:36:16.782Z,5.20
2019-03-11T11:38:44.634Z,5.30
2019-03-11T11:41:12.508Z,5.40
2019-03-11T11:43:40.264Z,5.50
2019-03-11T11:46:08.048Z,5.70
2019-03-11T11:48:35.706Z,5.90
2019-03-11T11:51:03.503Z,6.10
2019-03-11T11:53:31.249Z,6.30
2019-03-11T11:55:59.061Z,6.60
2019-03-11T11:58:26.742Z,6.70
2019-03-11T12:00:54.494Z,6.90
2019-03-11T12:03:22.185Z,7.10
2019-03-11T12:05:50.046Z,7.10
2019-03-11T12:08:17.925Z,7.20
2019-03-11T12:10:45.782Z,7.20
2019-03-11T12:13:13.489Z,7.00
2019-03-11T12:15:41.258Z,6.70
2019-03-11T12:18:08.913Z,6.60
2019-03-11T12:20:36.634Z,6.80
2019-03-11T12:23:04.385Z,6.80
2019-03-11T12:25:32.186Z,6.90
2019-03-11T12:28:02.862Z,6.90
2019-03-11T12:30:31.137Z,7.00
2019-03-11T12:33:00.163Z,7.20
2019-03-11T12:35:28.051Z,7.40
2019-03-11T12:37:56.204Z,7.30
2019-03-11T12:40:24.564Z,7.40
2019-03-11T12:42:52.405Z,7.40
2019-03-11T12:45:20.313Z,7.40
2019-03-11T12:47:49.089Z,7.60
2019-03-11T12:50:17.740Z,7.60
2019-03-11T12:52:47.098Z,7.60
2019-03-11T12:55:14.903Z,7.50
2019-03-11T12:57:42.787Z,7.50
2019-03-11T13:00:12.973Z,7.70
2019-03-11T13:02:42.331Z,7.70
2019-03-11T13:05:10.231Z,7.90
2019-03-11T13:07:38.834Z,7.80
2019-03-11T13:10:08.339Z,7.70
2019-03-11T13:12:37.735Z,7.40
2019-03-11T13:15:06.647Z,7.30
2019-03-11T13:17:36.027Z,7.40
2019-03-11T13:20:05.933Z,7.60
2019-03-11T13:22:35.325Z,7.70
2019-03-11T13:25:03.458Z,7.80
2019-03-11T13:27:32.750Z,7.90
2019-03-11T13:30:00.846Z,8.00
2019-03-11T13:32:30.122Z,8.00
2019-03-11T13:34:58.020Z,8.10
2019-03-11T13:37:25.704Z,7.90
2019-03-11T13:39:53.502Z,7.90
2019-03-11T13:42:21.197Z,7.90
2019-03-11T13:44:49.041Z,8.00
2019-03-11T13:47:16.870Z,8.20
2019-03-11T13:49:44.798Z,8.30
2019-03-11T13:52:12.509Z,8.40
2019-03-11T13:54:40.326Z,8.40
2019-03-11T13:57:08.039Z,8.40
2019-03-11T13:59:35.834Z,8.50
2019-03-11T14:02:03.528Z,8.50
2019-03-11T14:04:31.529Z,8.60
2019-03-11T14:06:59.333Z,8.50
2019-03-11T14:09:27.374Z,8.40
2019-03-11T14:11:55.265Z,8.30
2019-03-11T14:14:23.242Z,8.10
2019-03-11T14:16:51.144Z,8.20
2019-03-11T14:19:19.033Z,8.30
2019-03-11T14:21:46.757Z,8.00
2019-03-11T14:24:14.559Z,8.10
2019-03-11T14:26:42.294Z,7.90
2019-03-11T14:29:09.979Z,7.50
2019-03-11T14:31:37.884Z,7.30
2019-03-11T14:34:05.669Z,7.20
2019-03-11T14:36:33.433Z,7.20
2019-03-11T14:39:02.488Z,6.80
2019-03-11T14:41:31.169Z,6.70
2019-03-11T14:43:58.770Z,6.40
2019-03-11T14:46:26.558Z,6.30
2019-03-11T14:48:54.341Z,6.30
2019-03-11T14:51:22.007Z,6.30
2019-03-11T14:53:49.949Z,6.60
2019-03-11T14:56:17.888Z,6.70
2019-03-11T14:58:45.754Z,6.60
2019-03-11T15:01:13.458Z,6.60
2019-03-11T15:03:41.214Z,6.60
2019-03-11T15:06:08.905Z,6.80
2019-03-11T15:08:36.771Z,6.80
2019-03-11T15:11:04.591Z,6.90
2019-03-11T15:13:32.414Z,6.90
2019-03-11T15:16:00.125Z,6.90
2019-03-11T15:18:28.299Z,6.90
2019-03-11T15:20:56.112Z,7.00
2019-03-11T15:23:23.884Z,7.00
2019-03-11T15:25:51.773Z,7.00
2019-03-11T15:28:19.647Z,7.10
2019-03-11T15:30:47.353Z,7.00
2019-03-11T15:33:15.146Z,6.90
2019-03-11T15:35:42.886Z,6.90
2019-03-11T15:38:10.782Z,6.80
2019-03-11T15:40:38.482Z,6.70
2019-03-11T15:43:06.284Z,6.70
2019-03-11T15:45:38.482Z,6.70
2019-03-11T15:48:03.706Z,6.40
2019-03-11T15:50:31.429Z,6.30
2019-03-11T15:53:00.729Z,6.10
2019-03-11T15:55:28.516Z,5.90
2019-03-11T15:57:56.440Z,5.40
2019-03-11T16:00:24.226Z,5.20
2019-03-11T16:02:52.257Z,4.90
2019-03-11T16:05:20.273Z,4.90
2019-03-11T16:07:50.549Z,4.90
2019-03-11T16:10:18.959Z,4.90
2019-03-11T16:12:47.097Z,4.90
2019-03-11T16:15:15.576Z,5.00
2019-03-11T16:17:43.880Z,5.10
2019-03-11T16:20:12.953Z,5.20
2019-03-11T16:22:42.293Z,5.40
2019-03-11T16:25:10.153Z,5.50
2019-03-11T16:27:37.956Z,5.60
2019-03-11T16:30:29.792Z,5.80
2019-03-11T16:33:00.321Z,5.90
2019-03-11T16:35:27.727Z,5.90
2019-03-11T16:37:55.863Z,5.90
2019-03-11T16:40:23.681Z,5.80
2019-03-11T16:42:51.535Z,5.80
2019-03-11T16:45:19.418Z,5.70
2019-03-11T16:47:47.974Z,5.60
2019-03-11T16:50:20.556Z,5.60
2019-03-11T16:52:49.870Z,5.60
2019-03-11T16:55:19.872Z,5.60
2019-03-11T16:57:49.194Z,5.50
2019-03-11T17:00:18.937Z,5.50
2019-03-11T17:02:48.349Z,5.50
2019-03-11T17:05:16.047Z,5.50
2019-03-11T17:07:43.937Z,5.40
2019-03-11T17:10:12.347Z,5.30
2019-03-11T17:12:41.899Z,5.20
2019-03-11T17:15:09.901Z,5.20
2019-03-11T17:17:37.986Z,5.10
2019-03-11T17:20:07.306Z,5.00
2019-03-11T17:22:36.814Z,5.10
2019-03-11T17:25:05.716Z,5.00
2019-03-11T17:27:35.214Z,5.00
2019-03-11T17:30:03.790Z,5.00
2019-03-11T17:32:33.227Z,5.00
2019-03-11T17:35:00.961Z,5.00
2019-03-11T17:37:29.109Z,5.10
2019-03-11T17:39:57.344Z,5.10
2019-03-11T17:42:25.256Z,5.10
2019-03-11T17:44:53.144Z,5.10
2019-03-11T17:47:21.125Z,5.10
2019-03-11T17:49:49.022Z,5.10
2019-03-11T17:52:17.006Z,5.00
2019-03-11T17:54:44.917Z,5.00
2019-03-11T17:57:12.717Z,5.00
2019-03-11T17:59:40.461Z,5.00
2019-03-11T18:02:08.275Z,5.00
2019-03-11T18:04:36.295Z,5.00
2019-03-11T18:07:13.250Z,5.00
2019-03-11T18:09:42.121Z,5.10
2019-03-11T18:12:10.005Z,5.00
2019-03-11T18:14:38.054Z,5.00
2019-03-11T18:17:05.855Z,5.00
2019-03-11T18:19:33.656Z,5.00
2019-03-11T18:22:01.445Z,5.00
2019-03-11T18:24:29.387Z,5.00
2019-03-11T18:26:57.110Z,4.90
2019-03-11T18:29:24.985Z,5.00
2019-03-11T18:32:01.528Z,5.00
2019-03-11T18:34:22.410Z,5.00
2019-03-11T18:36:50.180Z,5.00
2019-03-11T18:39:19.244Z,5.00
2019-03-11T18:41:47.507Z,4.90
2019-03-11T18:44:15.471Z,4.90
2019-03-11T18:46:44.138Z,5.00
2019-03-11T18:49:12.318Z,5.00
2019-03-11T18:51:40.392Z,5.00
2019-03-11T18:54:08.496Z,4.90
2019-03-11T18:56:36.738Z,4.90
2019-03-11T18:59:04.645Z,4.90
2019-03-11T19:01:32.694Z,4.90
2019-03-11T19:04:03.621Z,5.00
2019-03-11T19:06:31.776Z,5.00
2019-03-11T19:08:59.962Z,5.00
2019-03-11T19:11:28.512Z,5.00
2019-03-11T19:13:57.040Z,5.00
2019-03-11T19:16:25.236Z,5.00
2019-03-11T19:18:53.450Z,5.00
2019-03-11T19:21:21.612Z,5.00
2019-03-11T19:23:49.727Z,4.90
2019-03-11T19:26:17.849Z,5.00
2019-03-11T19:28:45.701Z,4.90
2019-03-11T19:31:13.830Z,5.00
2019-03-11T19:33:41.935Z,5.00
2019-03-11T19:36:09.934Z,5.00
2019-03-11T19:38:38.142Z,5.10
2019-03-11T19:41:06.189Z,5.10
2019-03-11T19:43:34.365Z,5.00
2019-03-11T19:46:04.821Z,4.90
2019-03-11T19:48:33.104Z,4.80
2019-03-11T19:51:01.505Z,4.80
2019-03-11T19:53:29.738Z,4.80
2019-03-11T19:55:57.695Z,4.90
2019-03-11T19:58:25.726Z,4.80
2019-03-11T20:00:53.843Z,4.90
2019-03-11T20:03:26.793Z,4.80
2019-03-11T20:05:53.850Z,4.90
2019-03-11T20:08:21.251Z,4.90
2019-03-11T20:10:49.317Z,4.90
2019-03-11T20:13:17.498Z,4.90
2019-03-11T20:15:45.666Z,4.90
2019-03-11T20:18:13.692Z,4.90
2019-03-11T20:20:42.408Z,4.90
2019-03-11T20:23:10.615Z,4.90
2019-03-11T20:25:38.505Z,4.80
2019-03-11T20:28:06.315Z,4.90
2019-03-11T20:30:34.366Z,4.80
2019-03-11T20:33:03.919Z,4.80
2019-03-11T20:35:31.886Z,4.80
2019-03-11T20:37:59.893Z,4.80
2019-03-11T20:40:28.208Z,4.80
2019-03-11T20:42:56.214Z,4.80
2019-03-11T20:45:24.070Z,4.90
2019-03-11T20:47:52.367Z,4.80
2019-03-11T20:50:20.465Z,4.80
2019-03-11T20:52:48.358Z,4.70
2019-03-11T20:55:16.296Z,4.80
2019-03-11T20:57:45.223Z,4.70
2019-03-11T21:00:15.278Z,4.70
2019-03-11T21:02:44.678Z,4.70
2019-03-11T21:05:13.422Z,4.70
2019-03-11T21:07:42.827Z,4.70
2019-03-11T21:10:12.464Z,4.60
2019-03-11T21:12:41.726Z,4.50
2019-03-11T21:15:10.498Z,4.60
2019-03-11T21:17:40.011Z,4.60
2019-03-11T21:20:09.627Z,4.50
2019-03-11T21:22:39.249Z,4.60
2019-03-11T21:25:09.571Z,4.60
2019-03-11T21:27:39.026Z,4.60
2019-03-11T21:30:09.527Z,4.60
2019-03-11T21:32:39.059Z,4.50
2019-03-11T21:35:07.158Z,4.40
2019-03-11T21:37:35.334Z,4.50
2019-03-11T21:40:03.817Z,4.40
2019-03-11T21:42:33.337Z,4.50
2019-03-11T21:45:01.214Z,4.40
2019-03-11T21:47:29.298Z,4.40
2019-03-11T21:49:57.202Z,4.40
2019-03-11T21:52:25.027Z,4.50
2019-03-11T21:54:52.907Z,4.50
2019-03-11T21:57:20.795Z,4.50
2019-03-11T21:59:50.655Z,4.60
2019-03-11T22:02:18.463Z,4.60
2019-03-11T22:04:46.286Z,4.50
2019-03-11T22:07:14.070Z,4.40
2019-03-11T22:09:41.937Z,4.50
2019-03-11T22:12:10.763Z,4.40
2019-03-11T22:14:38.812Z,4.40
2019-03-11T22:17:06.518Z,4.40
2019-03-11T22:19:34.317Z,4.40
2019-03-11T22:22:02.146Z,4.40
2019-03-11T22:24:29.950Z,4.40
2019-03-11T22:26:57.646Z,4.30
2019-03-11T22:29:25.394Z,4.30
2019-03-11T22:31:53.204Z,4.30
2019-03-11T22:34:21.002Z,4.30
2019-03-11T22:36:48.925Z,4.30
2019-03-11T22:39:16.887Z,4.20
2019-03-11T22:41:44.577Z,4.30
2019-03-11T22:44:12.465Z,4.30
2019-03-11T22:46:40.256Z,4.20
2019-03-11T22:49:08.238Z,4.20
2019-03-11T22:51:35.948Z,4.20
2019-03-11T22:54:03.759Z,4.20
2019-03-11T22:56:31.569Z,4.10
2019-03-11T22:58:59.279Z,4.10
2019-03-11T23:01:27.171Z,4.10
2019-03-11T23:03:54.995Z,4.00
2019-03-11T23:06:22.987Z,4.10
2019-03-11T23:08:50.830Z,4.00
2019-03-11T23:11:18.873Z,3.90
2019-03-11T23:13:46.535Z,4.00
2019-03-11T23:16:14.308Z,3.90
2019-03-11T23:18:42.005Z,3.90
2019-03-11T23:21:09.986Z,4.00
2019-03-11T23:23:37.771Z,4.00
2019-03-11T23:26:05.616Z,4.00
2019-03-11T23:28:33.425Z,4.10
2019-03-11T23:31:01.373Z,4.00
2019-03-11T23:33:29.138Z,4.00
2019-03-11T23:35:56.939Z,4.00
2019-03-11T23:38:24.629Z,4.00
2019-03-11T23:40:52.564Z,4.00
2019-03-11T23:43:20.299Z,4.00
2019-03-11T23:45:48.090Z,4.00
2019-03-11T23:48:15.938Z,4.00
2019-03-11T23:50:43.636Z,4.10
2019-03-11T23:53:11.393Z,4.00
2019-03-11T23:55:39.206Z,4.00
2019-03-11T23:58:07.098Z,4.00
